createdAt,value
2019-02-05T00:01:02.810Z,14.73
2019-02-05T00:03:32.428Z,17.73
2019-02-05T00:06:01.951Z,22.10
2019-02-05T00:08:31.659Z,18.23
2019-02-05T00:11:01.362Z,15.97
2019-02-05T00:13:30.956Z,15.67
2019-02-05T00:16:00.488Z,14.67
2019-02-05T00:18:30.196Z,14.57
2019-02-05T00:20:59.804Z,14.83
2019-02-05T00:23:29.373Z,15.27
2019-02-05T00:26:05.992Z,18.73
2019-02-05T00:28:30.228Z,15.73
2019-02-05T00:30:59.798Z,14.03
2019-02-05T00:33:29.439Z,15.50
2019-02-05T00:35:59.079Z,14.77
2019-02-05T00:38:29.034Z,14.93
2019-02-05T00:43:33.905Z,14.27
2019-02-05T00:46:03.623Z,14.17
2019-02-05T00:48:33.386Z,20.03
2019-02-05T00:51:03.167Z,14.90
2019-02-05T00:53:32.762Z,13.20
2019-02-05T00:56:02.377Z,14.27
2019-02-05T00:58:31.958Z,15.83
2019-02-05T01:01:01.521Z,14.43
2019-02-05T01:03:31.922Z,14.93
2019-02-05T01:06:01.812Z,14.90
2019-02-05T01:08:31.348Z,27.57
2019-02-05T01:11:01.375Z,18.80
2019-02-05T01:13:30.959Z,13.13
2019-02-05T01:16:00.583Z,14.10
2019-02-05T01:18:30.223Z,12.57
2019-02-05T01:20:59.959Z,13.30
2019-02-05T01:23:29.634Z,14.73
2019-02-05T01:25:59.181Z,20.53
2019-02-05T01:28:28.784Z,14.63
2019-02-05T01:30:58.355Z,14.13
2019-02-05T01:33:27.952Z,14.50
2019-02-05T01:35:57.522Z,14.33
2019-02-05T01:38:27.115Z,14.73
2019-02-05T01:40:56.740Z,14.97
2019-02-05T01:43:26.269Z,15.43
2019-02-05T01:45:55.875Z,15.53
2019-02-05T01:48:25.854Z,17.10
2019-02-05T01:50:55.498Z,18.40
2019-02-05T01:53:25.138Z,17.23
2019-02-05T01:55:54.688Z,15.10
2019-02-05T01:58:24.408Z,15.07
2019-02-05T02:00:53.968Z,15.63
2019-02-05T02:03:23.846Z,14.90
2019-02-05T02:05:53.394Z,15.93
2019-02-05T02:08:23.029Z,15.97
2019-02-05T02:10:52.650Z,16.87
2019-02-05T02:13:22.345Z,14.97
2019-02-05T02:15:51.929Z,15.27
2019-02-05T02:18:21.854Z,14.00
2019-02-05T02:20:51.426Z,15.60
2019-02-05T02:23:21.043Z,15.67
2019-02-05T02:25:50.630Z,15.40
2019-02-05T02:28:20.186Z,16.30
2019-02-05T02:30:49.918Z,16.40
2019-02-05T02:33:19.754Z,15.20
2019-02-05T02:35:49.525Z,17.03
2019-02-05T02:38:19.072Z,16.47
2019-02-05T02:40:48.672Z,16.20
2019-02-05T02:43:18.301Z,18.20
2019-02-05T02:45:47.992Z,16.87
2019-02-05T02:48:17.554Z,18.57
2019-02-05T02:50:47.117Z,17.43
2019-02-05T02:53:16.811Z,18.97
2019-02-05T02:55:46.378Z,18.37
2019-02-05T02:58:16.529Z,18.07
2019-02-05T03:00:46.069Z,20.13
2019-02-05T03:03:15.638Z,19.77
2019-02-05T03:05:45.234Z,19.53
2019-02-05T03:08:14.838Z,18.63
2019-02-05T03:10:44.522Z,18.60
2019-02-05T03:13:16.151Z,18.60
2019-02-05T03:15:46.274Z,18.20
2019-02-05T03:18:16.811Z,19.73
2019-02-05T03:20:46.376Z,18.73
2019-02-05T03:23:15.975Z,18.40
2019-02-05T03:25:45.634Z,19.47
2019-02-05T03:28:15.262Z,19.63
2019-02-05T03:30:44.833Z,19.27
2019-02-05T03:33:14.388Z,19.23
2019-02-05T03:35:43.980Z,19.83
2019-02-05T03:38:13.555Z,20.13
2019-02-05T03:41:05.754Z,19.73
2019-02-05T03:43:39.575Z,21.00
2019-02-05T03:46:13.715Z,20.67
2019-02-05T03:48:49.939Z,18.97
2019-02-05T03:51:55.022Z,18.27
2019-02-05T03:55:08.233Z,20.53
2019-02-05T03:58:28.365Z,18.33
2019-02-05T04:01:20.735Z,17.50
2019-02-05T04:04:18.805Z,17.87
2019-02-05T04:07:29.718Z,19.70
2019-02-05T04:10:32.010Z,20.37
2019-02-05T04:13:26.397Z,18.23
2019-02-05T04:16:39.708Z,18.63
2019-02-05T04:19:59.989Z,19.00
2019-02-05T04:23:00.138Z,20.37
2019-02-05T04:25:55.282Z,18.70
2019-02-05T04:28:51.544Z,19.60
2019-02-05T04:31:49.545Z,21.30
2019-02-05T04:35:00.401Z,21.60
2019-02-05T04:37:44.071Z,20.97
2019-02-05T04:40:42.305Z,21.60
2019-02-05T04:43:53.365Z,25.73
2019-02-05T04:47:09.628Z,26.13
2019-02-05T04:50:12.571Z,24.07
2019-02-05T04:53:17.036Z,24.30
2019-02-05T04:56:25.371Z,22.60
2019-02-05T04:59:29.746Z,20.80
2019-02-05T05:02:38.711Z,21.97
2019-02-05T05:05:56.278Z,21.50
2019-02-05T05:09:12.508Z,23.10
2019-02-05T05:11:42.111Z,51.27
2019-02-05T05:14:11.826Z,53.27
2019-02-05T05:16:41.457Z,41.37
2019-02-05T05:19:11.063Z,53.57
2019-02-05T05:21:41.143Z,31.90
2019-02-05T05:24:10.961Z,31.13
2019-02-05T05:26:40.492Z,26.90
2019-02-05T05:29:10.049Z,24.73
2019-02-05T05:31:39.686Z,23.70
2019-02-05T05:34:09.244Z,23.73
2019-02-05T05:36:50.819Z,23.40
2019-02-05T05:39:20.721Z,23.77
2019-02-05T05:41:50.319Z,22.53
2019-02-05T05:44:19.866Z,22.43
2019-02-05T05:46:49.457Z,23.70
2019-02-05T05:49:19.223Z,22.10
2019-02-05T05:51:48.809Z,23.27
2019-02-05T05:54:18.375Z,24.10
2019-02-05T05:56:47.897Z,22.00
2019-02-05T05:59:17.471Z,20.43
2019-02-05T06:01:47.030Z,22.60
2019-02-05T06:04:16.894Z,22.13
2019-02-05T06:06:47.134Z,21.60
2019-02-05T06:09:17.233Z,21.20
2019-02-05T06:11:46.838Z,22.40
2019-02-05T06:14:16.377Z,21.20
2019-02-05T06:16:46.095Z,21.50
2019-02-05T06:19:15.658Z,22.57
2019-02-05T06:21:45.483Z,22.00
2019-02-05T06:24:15.283Z,22.73
2019-02-05T06:26:47.385Z,20.67
2019-02-05T06:29:19.731Z,20.00
2019-02-05T06:31:49.427Z,22.33
2019-02-05T06:34:19.010Z,21.33
2019-02-05T06:36:48.831Z,24.37
2019-02-05T06:39:18.419Z,22.90
2019-02-05T06:41:47.993Z,22.83
2019-02-05T06:44:17.713Z,22.63
2019-02-05T06:46:47.260Z,21.20
2019-02-05T06:49:16.895Z,22.23
2019-02-05T06:51:46.770Z,21.70
2019-02-05T06:56:51.142Z,21.40
2019-02-05T06:59:20.726Z,22.33
2019-02-05T07:01:55.364Z,21.33
2019-02-05T07:04:25.375Z,23.03
2019-02-05T07:06:54.919Z,22.43
2019-02-05T07:09:24.523Z,23.10
2019-02-05T07:11:54.169Z,22.47
2019-02-05T07:14:23.742Z,21.77
2019-02-05T07:16:53.454Z,22.00
2019-02-05T07:19:23.013Z,21.30
2019-02-05T07:21:52.547Z,22.60
2019-02-05T07:24:22.196Z,21.60
2019-02-05T07:26:51.832Z,22.90
2019-02-05T07:29:21.398Z,23.60
2019-02-05T07:31:50.954Z,22.30
2019-02-05T07:34:22.173Z,21.80
2019-02-05T07:36:51.861Z,22.53
2019-02-05T07:39:21.515Z,21.67
2019-02-05T07:41:53.830Z,23.53
2019-02-05T07:44:23.370Z,22.37
2019-02-05T07:46:53.024Z,22.33
2019-02-05T07:49:22.581Z,23.07
2019-02-05T07:51:52.178Z,22.03
2019-02-05T07:54:21.718Z,21.70
2019-02-05T07:56:51.371Z,20.70
2019-02-05T07:59:21.019Z,21.23
2019-02-05T08:01:50.641Z,22.30
2019-02-05T08:04:20.199Z,20.43
2019-02-05T08:06:49.907Z,22.67
2019-02-05T08:09:19.798Z,22.63
2019-02-05T08:11:49.379Z,20.53
2019-02-05T08:14:18.966Z,21.87
2019-02-05T08:16:48.539Z,20.97
2019-02-05T08:19:18.174Z,20.33
2019-02-05T08:21:47.702Z,21.53
2019-02-05T08:24:17.296Z,22.17
2019-02-05T08:26:46.842Z,20.93
2019-02-05T08:29:21.656Z,20.77
2019-02-05T08:31:47.818Z,20.53
2019-02-05T08:34:17.351Z,22.10
2019-02-05T08:36:46.960Z,20.13
2019-02-05T08:39:17.964Z,21.53
2019-02-05T08:41:47.732Z,20.63
2019-02-05T08:44:17.510Z,22.10
2019-02-05T08:46:47.142Z,21.20
2019-02-05T08:49:16.698Z,22.77
2019-02-05T08:51:46.251Z,20.77
2019-02-05T08:54:15.842Z,19.80
2019-02-05T08:56:45.403Z,20.43
2019-02-05T08:59:15.059Z,20.57
2019-02-05T09:01:44.723Z,20.60
2019-02-05T09:04:14.326Z,21.03
2019-02-05T09:06:44.719Z,19.53
2019-02-05T09:09:14.274Z,19.27
2019-02-05T09:11:43.930Z,19.90
2019-02-05T09:14:13.518Z,20.00
2019-02-05T09:16:43.456Z,19.77
2019-02-05T09:19:12.974Z,19.77
2019-02-05T09:21:42.626Z,19.20
2019-02-05T09:24:12.145Z,19.03
2019-02-05T09:26:41.774Z,19.13
2019-02-05T09:29:11.316Z,20.37
2019-02-05T09:31:41.240Z,17.53
2019-02-05T09:34:10.771Z,20.20
2019-02-05T09:36:40.396Z,19.13
2019-02-05T09:39:10.095Z,18.80
2019-02-05T09:41:39.671Z,18.57
2019-02-05T09:44:09.258Z,19.23
2019-02-05T09:46:38.817Z,18.33
2019-02-05T09:49:08.633Z,19.23
2019-02-05T09:51:38.230Z,18.83
2019-02-05T09:54:08.355Z,19.20
2019-02-05T09:56:37.997Z,19.20
2019-02-05T09:59:07.566Z,18.67
2019-02-05T10:01:37.158Z,18.90
2019-02-05T10:04:06.986Z,18.80
2019-02-05T10:06:36.567Z,18.40
2019-02-05T10:09:08.622Z,18.60
2019-02-05T10:11:38.228Z,19.33
2019-02-05T10:14:07.866Z,21.53
2019-02-05T10:19:12.335Z,19.13
2019-02-05T10:21:41.894Z,18.50
2019-02-05T10:24:11.555Z,18.07
2019-02-05T10:26:41.148Z,17.90
2019-02-05T10:29:10.716Z,17.70
2019-02-05T10:31:40.307Z,18.13
2019-02-05T10:34:10.285Z,18.70
2019-02-05T10:36:39.874Z,17.33
2019-02-05T10:39:10.243Z,17.43
2019-02-05T10:41:39.896Z,19.43
2019-02-05T10:44:09.592Z,19.33
2019-02-05T10:46:39.174Z,18.43
2019-02-05T10:49:08.754Z,17.87
2019-02-05T10:51:38.320Z,18.23
2019-02-05T10:54:08.031Z,18.40
2019-02-05T10:56:37.633Z,16.70
2019-02-05T10:59:07.409Z,17.90
2019-02-05T11:01:37.068Z,17.93
2019-02-05T11:04:06.600Z,17.70
2019-02-05T11:06:36.467Z,18.87
2019-02-05T11:09:09.436Z,18.40
2019-02-05T11:11:38.990Z,19.50
2019-02-05T11:14:08.551Z,19.23
2019-02-05T11:16:38.182Z,18.97
2019-02-05T11:19:07.812Z,19.83
2019-02-05T11:21:37.729Z,18.97
2019-02-05T11:24:07.543Z,19.07
2019-02-05T11:26:37.100Z,19.27
2019-02-05T11:29:06.671Z,18.13
2019-02-05T11:31:36.234Z,18.10
2019-02-05T11:34:06.094Z,18.53
2019-02-05T11:36:35.739Z,19.30
2019-02-05T11:39:11.550Z,20.23
2019-02-05T11:41:41.115Z,17.77
2019-02-05T11:44:10.735Z,19.87
2019-02-05T11:46:40.287Z,19.67
2019-02-05T11:49:09.902Z,18.87
2019-02-05T11:51:39.559Z,18.53
2019-02-05T11:54:09.086Z,18.97
2019-02-05T11:56:38.679Z,18.97
2019-02-05T11:59:08.232Z,18.50
2019-02-05T12:01:39.291Z,16.77
2019-02-05T12:04:09.030Z,18.17
2019-02-05T12:06:38.791Z,17.20
2019-02-05T12:09:19.199Z,18.57
2019-02-05T12:11:48.787Z,18.83
2019-02-05T12:14:18.446Z,17.73
2019-02-05T12:16:48.045Z,17.10
2019-02-05T12:19:17.608Z,17.70
2019-02-05T12:21:47.132Z,17.47
2019-02-05T12:24:16.810Z,17.37
2019-02-05T12:26:46.338Z,16.33
2019-02-05T12:29:15.919Z,16.13
2019-02-05T12:31:45.563Z,17.17
2019-02-05T12:34:15.286Z,16.57
2019-02-05T12:36:44.903Z,18.50
2019-02-05T12:39:18.259Z,16.97
2019-02-05T12:41:47.959Z,17.33
2019-02-05T12:44:17.492Z,19.23
2019-02-05T12:49:35.640Z,18.97
2019-02-05T12:52:05.479Z,18.43
2019-02-05T12:54:35.164Z,16.67
2019-02-05T12:57:04.749Z,17.07
2019-02-05T12:59:34.311Z,16.40
2019-02-05T13:02:03.861Z,17.10
2019-02-05T13:04:33.783Z,16.77
2019-02-05T13:07:03.336Z,16.93
2019-02-05T13:09:32.978Z,16.77
2019-02-05T13:12:03.227Z,16.33
2019-02-05T13:14:32.891Z,15.63
2019-02-05T13:17:02.483Z,17.30
2019-02-05T13:19:32.187Z,16.13
2019-02-05T13:22:01.758Z,17.40
2019-02-05T13:24:31.366Z,18.20
2019-02-05T13:27:01.079Z,16.20
2019-02-05T13:29:31.045Z,17.70
2019-02-05T13:32:00.647Z,16.13
2019-02-05T13:34:30.175Z,16.70
2019-02-05T13:37:00.301Z,17.60
2019-02-05T13:39:30.048Z,16.80
2019-02-05T13:41:59.540Z,17.80
2019-02-05T13:44:29.126Z,16.93
2019-02-05T13:46:58.650Z,18.00
2019-02-05T13:49:28.615Z,18.13
2019-02-05T13:51:58.146Z,17.00
2019-02-05T13:54:27.711Z,18.00
2019-02-05T13:56:57.315Z,17.00
2019-02-05T13:59:26.846Z,17.93
2019-02-05T14:01:56.718Z,19.83
2019-02-05T14:04:26.253Z,17.53
2019-02-05T14:06:55.810Z,17.83
2019-02-05T14:09:25.366Z,18.80
2019-02-05T14:11:54.946Z,19.27
2019-02-05T14:14:24.563Z,19.67
2019-02-05T14:16:54.286Z,20.70
2019-02-05T14:19:23.870Z,20.47
2019-02-05T14:21:53.434Z,18.13
2019-02-05T14:24:23.057Z,19.07
2019-02-05T14:26:52.600Z,20.33
2019-02-05T14:29:22.181Z,20.67
2019-02-05T14:31:51.814Z,19.87
2019-02-05T14:34:21.387Z,19.93
2019-02-05T14:36:51.059Z,17.77
2019-02-05T14:39:20.648Z,18.80
2019-02-05T14:41:50.207Z,19.20
2019-02-05T14:44:19.790Z,18.33
2019-02-05T14:46:49.719Z,18.47
2019-02-05T14:49:19.278Z,19.23
2019-02-05T14:51:48.806Z,18.03
2019-02-05T14:54:18.307Z,18.47
2019-02-05T14:56:47.877Z,18.80
2019-02-05T14:59:17.415Z,18.37
2019-02-05T15:01:47.247Z,19.40
2019-02-05T15:04:16.775Z,17.93
2019-02-05T15:06:46.299Z,19.37
2019-02-05T15:09:15.885Z,18.40
2019-02-05T15:11:45.407Z,19.17
2019-02-05T15:14:15.076Z,19.53
2019-02-05T15:16:44.850Z,18.80
2019-02-05T15:19:14.458Z,18.00
2019-02-05T15:21:44.014Z,19.93
2019-02-05T15:24:13.610Z,19.50
2019-02-05T15:26:43.195Z,19.23
2019-02-05T15:29:12.748Z,20.60
2019-02-05T15:31:54.278Z,20.33
2019-02-05T15:34:21.688Z,19.50
2019-02-05T15:36:51.778Z,20.40
2019-02-05T15:39:21.354Z,20.23
2019-02-05T15:41:50.928Z,19.83
2019-02-05T15:44:20.535Z,21.70
2019-02-05T15:46:50.142Z,20.60
2019-02-05T15:49:19.656Z,23.63
2019-02-05T15:51:49.214Z,27.77
2019-02-05T15:54:18.747Z,24.60
2019-02-05T15:56:48.639Z,20.80
2019-02-05T15:59:18.155Z,20.17
2019-02-05T16:04:22.713Z,21.73
2019-02-05T16:06:52.249Z,21.00
2019-02-05T16:09:21.786Z,24.27
2019-02-05T16:11:52.027Z,27.97
2019-02-05T16:14:21.617Z,28.37
2019-02-05T16:16:51.266Z,26.37
2019-02-05T16:19:20.850Z,22.17
2019-02-05T16:21:50.393Z,22.37
2019-02-05T16:24:20.280Z,20.77
2019-02-05T16:26:50.011Z,22.13
2019-02-05T16:29:19.848Z,22.27
2019-02-05T16:31:49.369Z,21.77
2019-02-05T16:34:19.011Z,23.27
2019-02-05T16:36:48.833Z,22.57
2019-02-05T16:39:18.329Z,22.20
2019-02-05T16:41:48.118Z,20.90
2019-02-05T16:44:17.723Z,22.23
2019-02-05T16:46:47.359Z,23.60
2019-02-05T16:49:16.939Z,23.60
2019-02-05T16:51:46.508Z,20.90
2019-02-05T16:54:16.066Z,22.13
2019-02-05T16:56:45.589Z,20.87
2019-02-05T16:59:15.167Z,22.60
2019-02-05T17:01:44.702Z,22.33
2019-02-05T17:04:14.287Z,24.47
2019-02-05T17:06:43.838Z,22.77
2019-02-05T17:09:17.401Z,23.87
2019-02-05T17:11:46.930Z,24.97
2019-02-05T17:14:16.503Z,29.10
2019-02-05T17:16:46.118Z,27.90
2019-02-05T17:19:15.650Z,23.57
2019-02-05T17:21:45.213Z,25.33
2019-02-05T17:24:15.218Z,26.47
2019-02-05T17:26:44.913Z,23.27
2019-02-05T17:29:14.455Z,25.00
2019-02-05T17:31:44.099Z,23.67
2019-02-05T17:34:13.698Z,22.33
2019-02-05T17:36:43.237Z,23.80
2019-02-05T17:39:14.066Z,25.97
2019-02-05T17:41:44.707Z,28.07
2019-02-05T17:44:14.268Z,23.90
2019-02-05T17:46:43.909Z,25.97
2019-02-05T17:49:13.438Z,25.17
2019-02-05T17:51:43.007Z,23.03
2019-02-05T17:54:15.169Z,22.47
2019-02-05T17:56:43.922Z,23.87
2019-02-05T17:59:13.470Z,24.50
2019-02-05T18:01:43.016Z,25.00
2019-02-05T18:04:12.571Z,24.30
2019-02-05T18:06:42.128Z,23.93
2019-02-05T18:09:11.754Z,24.70
2019-02-05T18:11:41.376Z,24.07
2019-02-05T18:14:11.099Z,22.73
2019-02-05T18:16:40.760Z,24.70
2019-02-05T18:19:10.475Z,24.83
2019-02-05T18:21:40.600Z,23.80
2019-02-05T18:24:10.213Z,24.20
2019-02-05T18:26:39.731Z,24.13
2019-02-05T18:29:09.383Z,23.90
2019-02-05T18:31:39.006Z,24.20
2019-02-05T18:34:08.671Z,24.30
2019-02-05T18:36:38.574Z,23.30
2019-02-05T18:39:10.074Z,25.10
2019-02-05T18:41:39.699Z,24.33
2019-02-05T18:44:09.193Z,24.97
2019-02-05T18:46:38.756Z,25.37
2019-02-05T18:49:08.422Z,25.77
2019-02-05T18:51:38.219Z,26.27
2019-02-05T18:54:08.902Z,26.20
2019-02-05T18:56:38.438Z,24.13
2019-02-05T18:59:08.033Z,26.60
2019-02-05T19:01:37.664Z,23.87
2019-02-05T19:04:07.472Z,22.47
2019-02-05T19:06:37.146Z,25.73
2019-02-05T19:09:13.095Z,23.93
2019-02-05T19:11:42.694Z,24.80
2019-02-05T19:14:12.272Z,26.43
2019-02-05T19:16:41.853Z,24.97
2019-02-05T19:19:14.980Z,25.37
2019-02-05T19:21:43.096Z,24.77
2019-02-05T19:24:31.756Z,25.83
2019-02-05T19:27:03.756Z,25.03
2019-02-05T19:29:33.803Z,24.87
2019-02-05T19:32:05.448Z,26.27
2019-02-05T19:34:35.068Z,26.27
2019-02-05T19:37:04.707Z,25.93
2019-02-05T19:39:34.423Z,24.50
2019-02-05T19:42:04.004Z,25.77
2019-02-05T19:44:34.044Z,24.43
2019-02-05T19:47:16.568Z,26.13
2019-02-05T19:49:52.962Z,25.10
2019-02-05T19:52:22.651Z,27.17
2019-02-05T19:54:52.436Z,25.40
2019-02-05T19:57:22.025Z,26.80
2019-02-05T19:59:52.056Z,24.77
2019-02-05T20:02:21.584Z,25.80
2019-02-05T20:04:51.132Z,22.87
2019-02-05T20:07:20.686Z,26.30
2019-02-05T20:09:50.286Z,27.73
2019-02-05T20:14:55.062Z,26.97
2019-02-05T20:17:24.594Z,27.77
2019-02-05T20:19:54.187Z,26.17
2019-02-05T20:22:23.731Z,27.83
2019-02-05T20:24:53.396Z,27.10
2019-02-05T20:27:22.911Z,24.77
2019-02-05T20:29:52.520Z,28.27
2019-02-05T20:32:22.062Z,27.60
2019-02-05T20:34:51.700Z,27.63
2019-02-05T20:37:21.233Z,26.30
2019-02-05T20:39:50.870Z,28.40
2019-02-05T20:42:21.324Z,27.33
2019-02-05T20:44:51.158Z,27.23
2019-02-05T20:47:20.710Z,26.97
2019-02-05T20:49:50.367Z,27.03
2019-02-05T20:52:19.932Z,25.90
2019-02-05T20:54:49.729Z,27.60
2019-02-05T20:57:19.202Z,28.73
2019-02-05T20:59:48.768Z,29.77
2019-02-05T21:02:18.420Z,29.40
2019-02-05T21:04:48.825Z,27.57
2019-02-05T21:07:18.668Z,26.23
2019-02-05T21:09:48.250Z,26.10
2019-02-05T21:12:17.790Z,28.17
2019-02-05T21:14:52.211Z,26.23
2019-02-05T21:17:21.755Z,26.57
2019-02-05T21:19:51.352Z,26.90
2019-02-05T21:22:20.915Z,27.13
2019-02-05T21:24:50.486Z,27.27
2019-02-05T21:27:20.027Z,28.13
2019-02-05T21:29:49.606Z,27.43
2019-02-05T21:32:19.245Z,27.97
2019-02-05T21:34:48.795Z,26.87
2019-02-05T21:37:18.382Z,26.67
2019-02-05T21:39:47.937Z,28.97
2019-02-05T21:42:17.530Z,28.73
2019-02-05T21:44:47.123Z,26.77
2019-02-05T21:47:16.775Z,30.13
2019-02-05T21:49:46.403Z,29.33
2019-02-05T21:52:16.342Z,29.33
2019-02-05T21:54:46.010Z,27.67
2019-02-05T21:57:15.571Z,29.30
2019-02-05T21:59:45.199Z,28.17
2019-02-05T22:02:14.947Z,30.20
2019-02-05T22:04:44.534Z,29.27
2019-02-05T22:07:14.163Z,29.10
2019-02-05T22:09:43.850Z,28.40
2019-02-05T22:12:13.421Z,28.23
2019-02-05T22:14:43.033Z,28.60
2019-02-05T22:17:12.760Z,29.93
2019-02-05T22:19:42.388Z,29.50
2019-02-05T22:22:11.973Z,31.40
2019-02-05T22:24:41.533Z,30.10
2019-02-05T22:27:12.431Z,31.40
2019-02-05T22:29:42.034Z,32.43
2019-02-05T22:32:11.550Z,30.77
2019-02-05T22:34:41.124Z,29.60
2019-02-05T22:37:10.858Z,29.23
2019-02-05T22:39:40.714Z,29.53
2019-02-05T22:42:10.370Z,30.57
2019-02-05T22:44:39.934Z,30.93
2019-02-05T22:47:09.471Z,29.37
2019-02-05T22:49:39.219Z,31.97
2019-02-05T22:52:08.760Z,32.23
2019-02-05T22:54:38.291Z,31.57
2019-02-05T22:57:07.922Z,30.87
2019-02-05T22:59:37.742Z,32.43
2019-02-05T23:02:07.707Z,28.87
2019-02-05T23:05:00.852Z,31.93
2019-02-05T23:07:31.649Z,32.03
2019-02-05T23:10:35.486Z,32.50
2019-02-05T23:13:08.831Z,31.63
2019-02-05T23:15:41.759Z,29.97
2019-02-05T23:18:11.682Z,32.53
2019-02-05T23:20:41.217Z,30.83
2019-02-05T23:23:10.902Z,32.03
2019-02-05T23:25:42.890Z,30.07
2019-02-05T23:28:12.470Z,31.67
2019-02-05T23:30:42.110Z,31.90
2019-02-05T23:33:12.033Z,30.23
2019-02-05T23:35:41.718Z,29.67
2019-02-05T23:38:11.237Z,29.27
2019-02-05T23:40:40.817Z,30.23
2019-02-05T23:43:10.499Z,31.30
2019-02-05T23:45:40.118Z,32.67
2019-02-05T23:48:10.016Z,31.60
2019-02-05T23:50:39.598Z,31.87
2019-02-05T23:53:09.128Z,30.70
2019-02-05T23:55:38.686Z,29.53
2019-02-05T23:58:08.258Z,29.83
